Aviation Digital Data Service (ADDS)

Output produced by METARs form (0212 UTC 03 September 2014)
found at http://aviationweather.gov/adds/metars/
 
KRME 030137Z 0302/0324 31005KT P6SM SCT015 BKN050 
     TEMPO 0302/0306 BKN015 
     FM030600 27005KT P6SM FEW015 BKN040 
     FM031300 29008KT P6SM SCT035